sensor_id;sensor_type;location;lat;lon;timestamp;P1;durP1;ratioP1;P2;durP2;ratioP2
11139;SDS011;5624;49.388;11.350;2023-04-06T00:00:51;7.07;;;4.93;;
11139;SDS011;5624;49.388;11.350;2023-04-06T00:03:17;5.53;;;4.47;;
11139;SDS011;5624;49.388;11.350;2023-04-06T00:05:43;5.87;;;4.27;;
11139;SDS011;5624;49.388;11.350;2023-04-06T00:08:09;9.73;;;4.90;;
11139;SDS011;5624;49.388;11.350;2023-04-06T00:10:34;7.47;;;5.00;;
11139;SDS011;5624;49.388;11.350;2023-04-06T00:13:00;6.10;;;4.73;;
11139;SDS011;5624;49.388;11.350;2023-04-06T00:15:26;6.73;;;3.77;;
11139;SDS011;5624;49.388;11.350;2023-04-06T00:17:52;6.73;;;4.10;;
11139;SDS011;5624;49.388;11.350;2023-04-06T00:20:17;7.07;;;4.27;;
11139;SDS011;5624;49.388;11.350;2023-04-06T00:22:43;5.33;;;3.47;;
11139;SDS011;5624;49.388;11.350;2023-04-06T00:25:10;6.47;;;4.00;;
11139;SDS011;5624;49.388;11.350;2023-04-06T00:27:36;6.83;;;4.37;;
11139;SDS011;5624;49.388;11.350;2023-04-06T00:30:03;7.17;;;4.20;;
11139;SDS011;5624;49.388;11.350;2023-04-06T00:32:30;5.10;;;3.77;;
11139;SDS011;5624;49.388;11.350;2023-04-06T00:34:56;5.67;;;4.30;;
11139;SDS011;5624;49.388;11.350;2023-04-06T00:37:22;6.33;;;4.17;;
11139;SDS011;5624;49.388;11.350;2023-04-06T00:39:47;4.93;;;4.03;;
11139;SDS011;5624;49.388;11.350;2023-04-06T00:42:13;5.30;;;3.80;;
11139;SDS011;5624;49.388;11.350;2023-04-06T00:44:42;4.70;;;3.97;;
11139;SDS011;5624;49.388;11.350;2023-04-06T00:47:08;4.40;;;3.90;;
11139;SDS011;5624;49.388;11.350;2023-04-06T00:49:34;6.40;;;4.53;;
11139;SDS011;5624;49.388;11.350;2023-04-06T00:52:00;6.53;;;4.87;;
11139;SDS011;5624;49.388;11.350;2023-04-06T00:54:26;6.90;;;4.67;;
11139;SDS011;5624;49.388;11.350;2023-04-06T00:56:52;7.77;;;4.50;;
11139;SDS011;5624;49.388;11.350;2023-04-06T00:59:18;5.30;;;3.47;;
11139;SDS011;5624;49.388;11.350;2023-04-06T01:01:44;7.80;;;3.80;;
11139;SDS011;5624;49.388;11.350;2023-04-06T01:04:09;6.40;;;4.00;;
11139;SDS011;5624;49.388;11.350;2023-04-06T01:06:35;6.87;;;4.80;;
11139;SDS011;5624;49.388;11.350;2023-04-06T01:09:00;7.87;;;4.57;;
11139;SDS011;5624;49.388;11.350;2023-04-06T01:11:26;7.40;;;4.47;;
11139;SDS011;5624;49.388;11.350;2023-04-06T01:13:52;6.47;;;4.20;;
11139;SDS011;5624;49.388;11.350;2023-04-06T01:16:18;4.50;;;3.37;;
11139;SDS011;5624;49.388;11.350;2023-04-06T01:18:43;5.90;;;3.77;;
11139;SDS011;5624;49.388;11.350;2023-04-06T01:21:09;5.53;;;4.20;;
11139;SDS011;5624;49.388;11.350;2023-04-06T01:23:41;8.03;;;4.20;;
11139;SDS011;5624;49.388;11.350;2023-04-06T01:26:11;5.50;;;4.70;;
11139;SDS011;5624;49.388;11.350;2023-04-06T01:28:37;8.50;;;5.23;;
11139;SDS011;5624;49.388;11.350;2023-04-06T01:31:03;6.13;;;4.93;;
11139;SDS011;5624;49.388;11.350;2023-04-06T01:33:29;6.13;;;4.50;;
11139;SDS011;5624;49.388;11.350;2023-04-06T01:35:55;6.60;;;4.57;;
11139;SDS011;5624;49.388;11.350;2023-04-06T01:38:20;5.93;;;4.53;;
11139;SDS011;5624;49.388;11.350;2023-04-06T01:40:46;5.87;;;4.77;;
11139;SDS011;5624;49.388;11.350;2023-04-06T01:43:11;6.77;;;4.40;;
11139;SDS011;5624;49.388;11.350;2023-04-06T01:45:37;7.27;;;4.73;;
11139;SDS011;5624;49.388;11.350;2023-04-06T01:48:03;8.60;;;4.93;;
11139;SDS011;5624;49.388;11.350;2023-04-06T01:50:28;6.80;;;4.57;;
11139;SDS011;5624;49.388;11.350;2023-04-06T01:52:54;8.10;;;4.80;;
11139;SDS011;5624;49.388;11.350;2023-04-06T01:55:20;6.07;;;4.60;;
11139;SDS011;5624;49.388;11.350;2023-04-06T01:57:45;7.73;;;5.13;;
11139;SDS011;5624;49.388;11.350;2023-04-06T02:00:11;6.10;;;4.47;;
11139;SDS011;5624;49.388;11.350;2023-04-06T02:02:37;7.80;;;4.30;;
11139;SDS011;5624;49.388;11.350;2023-04-06T02:05:03;5.67;;;4.60;;
11139;SDS011;5624;49.388;11.350;2023-04-06T02:07:29;6.80;;;5.50;;
11139;SDS011;5624;49.388;11.350;2023-04-06T02:09:54;5.97;;;4.57;;
11139;SDS011;5624;49.388;11.350;2023-04-06T02:12:21;8.40;;;4.70;;
11139;SDS011;5624;49.388;11.350;2023-04-06T02:14:46;8.63;;;4.80;;
11139;SDS011;5624;49.388;11.350;2023-04-06T02:17:12;4.60;;;4.07;;
11139;SDS011;5624;49.388;11.350;2023-04-06T02:19:37;6.97;;;5.47;;
11139;SDS011;5624;49.388;11.350;2023-04-06T02:22:03;7.93;;;4.80;;
11139;SDS011;5624;49.388;11.350;2023-04-06T02:24:28;6.00;;;4.40;;
11139;SDS011;5624;49.388;11.350;2023-04-06T02:26:54;5.37;;;4.33;;
11139;SDS011;5624;49.388;11.350;2023-04-06T02:29:20;7.03;;;5.23;;
11139;SDS011;5624;49.388;11.350;2023-04-06T02:31:46;6.90;;;4.70;;
11139;SDS011;5624;49.388;11.350;2023-04-06T02:34:11;6.87;;;4.83;;
11139;SDS011;5624;49.388;11.350;2023-04-06T02:36:42;5.83;;;4.67;;
11139;SDS011;5624;49.388;11.350;2023-04-06T02:39:09;6.40;;;4.67;;
11139;SDS011;5624;49.388;11.350;2023-04-06T02:41:35;6.50;;;4.70;;
11139;SDS011;5624;49.388;11.350;2023-04-06T02:44:00;7.27;;;4.70;;
11139;SDS011;5624;49.388;11.350;2023-04-06T02:46:26;6.43;;;4.40;;
11139;SDS011;5624;49.388;11.350;2023-04-06T02:48:52;5.47;;;4.80;;
11139;SDS011;5624;49.388;11.350;2023-04-06T02:51:17;6.43;;;5.07;;
11139;SDS011;5624;49.388;11.350;2023-04-06T02:53:43;7.23;;;4.83;;
11139;SDS011;5624;49.388;11.350;2023-04-06T02:56:08;6.60;;;4.40;;
11139;SDS011;5624;49.388;11.350;2023-04-06T02:58:34;8.63;;;5.73;;
11139;SDS011;5624;49.388;11.350;2023-04-06T03:01:00;7.30;;;5.20;;
11139;SDS011;5624;49.388;11.350;2023-04-06T03:03:25;10.80;;;5.27;;
11139;SDS011;5624;49.388;11.350;2023-04-06T03:05:51;7.93;;;5.17;;
11139;SDS011;5624;49.388;11.350;2023-04-06T03:08:17;7.30;;;4.90;;
11139;SDS011;5624;49.388;11.350;2023-04-06T03:10:42;8.20;;;5.23;;
11139;SDS011;5624;49.388;11.350;2023-04-06T03:13:08;7.57;;;4.67;;
11139;SDS011;5624;49.388;11.350;2023-04-06T03:15:33;7.37;;;4.97;;
11139;SDS011;5624;49.388;11.350;2023-04-06T03:17:59;9.50;;;5.20;;
11139;SDS011;5624;49.388;11.350;2023-04-06T03:20:24;6.13;;;4.90;;
11139;SDS011;5624;49.388;11.350;2023-04-06T03:22:50;9.10;;;5.60;;
11139;SDS011;5624;49.388;11.350;2023-04-06T03:25:15;7.67;;;5.00;;
11139;SDS011;5624;49.388;11.350;2023-04-06T03:27:41;7.10;;;4.70;;
11139;SDS011;5624;49.388;11.350;2023-04-06T03:30:07;7.53;;;4.20;;
11139;SDS011;5624;49.388;11.350;2023-04-06T03:32:32;7.93;;;5.20;;
11139;SDS011;5624;49.388;11.350;2023-04-06T03:34:58;7.23;;;5.30;;
11139;SDS011;5624;49.388;11.350;2023-04-06T03:37:23;7.33;;;5.10;;
11139;SDS011;5624;49.388;11.350;2023-04-06T03:39:49;7.00;;;5.33;;
11139;SDS011;5624;49.388;11.350;2023-04-06T03:42:15;9.53;;;5.37;;
11139;SDS011;5624;49.388;11.350;2023-04-06T03:44:41;6.77;;;5.03;;
11139;SDS011;5624;49.388;11.350;2023-04-06T03:47:06;7.53;;;5.00;;
11139;SDS011;5624;49.388;11.350;2023-04-06T03:49:32;6.20;;;5.10;;
11139;SDS011;5624;49.388;11.350;2023-04-06T03:51:57;6.90;;;4.93;;
11139;SDS011;5624;49.388;11.350;2023-04-06T03:54:23;8.00;;;5.20;;
11139;SDS011;5624;49.388;11.350;2023-04-06T03:56:48;7.77;;;5.13;;
11139;SDS011;5624;49.388;11.350;2023-04-06T03:59:14;6.47;;;4.63;;
11139;SDS011;5624;49.388;11.350;2023-04-06T04:01:40;5.90;;;5.00;;
11139;SDS011;5624;49.388;11.350;2023-04-06T04:04:05;6.20;;;4.53;;
11139;SDS011;5624;49.388;11.350;2023-04-06T04:06:31;7.30;;;5.57;;
11139;SDS011;5624;49.388;11.350;2023-04-06T04:08:56;5.97;;;5.00;;
11139;SDS011;5624;49.388;11.350;2023-04-06T04:11:22;5.50;;;4.40;;
11139;SDS011;5624;49.388;11.350;2023-04-06T04:13:47;11.80;;;4.90;;
11139;SDS011;5624;49.388;11.350;2023-04-06T04:16:13;5.40;;;3.77;;
11139;SDS011;5624;49.388;11.350;2023-04-06T04:18:38;8.87;;;4.33;;
11139;SDS011;5624;49.388;11.350;2023-04-06T04:21:04;8.10;;;5.20;;
11139;SDS011;5624;49.388;11.350;2023-04-06T04:23:30;6.33;;;4.10;;
11139;SDS011;5624;49.388;11.350;2023-04-06T04:25:55;7.33;;;4.70;;
11139;SDS011;5624;49.388;11.350;2023-04-06T04:28:21;6.97;;;4.53;;
11139;SDS011;5624;49.388;11.350;2023-04-06T04:30:46;8.13;;;5.60;;
11139;SDS011;5624;49.388;11.350;2023-04-06T04:33:12;7.73;;;5.20;;
11139;SDS011;5624;49.388;11.350;2023-04-06T04:35:37;9.17;;;5.20;;
11139;SDS011;5624;49.388;11.350;2023-04-06T04:38:03;6.97;;;5.13;;
11139;SDS011;5624;49.388;11.350;2023-04-06T04:40:29;9.03;;;5.80;;
11139;SDS011;5624;49.388;11.350;2023-04-06T04:42:54;6.27;;;5.00;;
11139;SDS011;5624;49.388;11.350;2023-04-06T04:45:20;7.97;;;5.63;;
11139;SDS011;5624;49.388;11.350;2023-04-06T04:47:45;7.03;;;5.17;;
11139;SDS011;5624;49.388;11.350;2023-04-06T04:50:11;9.97;;;4.90;;
11139;SDS011;5624;49.388;11.350;2023-04-06T04:52:37;4.57;;;4.07;;
11139;SDS011;5624;49.388;11.350;2023-04-06T04:55:03;7.37;;;4.43;;
11139;SDS011;5624;49.388;11.350;2023-04-06T04:57:29;7.37;;;4.77;;
11139;SDS011;5624;49.388;11.350;2023-04-06T04:59:54;8.70;;;4.33;;
11139;SDS011;5624;49.388;11.350;2023-04-06T05:02:20;8.87;;;4.80;;
11139;SDS011;5624;49.388;11.350;2023-04-06T05:04:46;6.77;;;5.00;;
11139;SDS011;5624;49.388;11.350;2023-04-06T05:07:11;9.23;;;5.47;;
11139;SDS011;5624;49.388;11.350;2023-04-06T05:09:37;8.70;;;5.37;;
11139;SDS011;5624;49.388;11.350;2023-04-06T05:12:02;8.73;;;5.47;;
11139;SDS011;5624;49.388;11.350;2023-04-06T05:14:28;7.63;;;5.00;;
11139;SDS011;5624;49.388;11.350;2023-04-06T05:16:54;8.90;;;5.57;;
11139;SDS011;5624;49.388;11.350;2023-04-06T05:19:19;8.50;;;4.37;;
11139;SDS011;5624;49.388;11.350;2023-04-06T05:21:45;5.97;;;4.13;;
11139;SDS011;5624;49.388;11.350;2023-04-06T05:24:11;6.53;;;4.83;;
11139;SDS011;5624;49.388;11.350;2023-04-06T05:26:36;10.07;;;4.60;;
11139;SDS011;5624;49.388;11.350;2023-04-06T05:29:02;6.27;;;4.13;;
11139;SDS011;5624;49.388;11.350;2023-04-06T05:31:28;4.63;;;3.90;;
11139;SDS011;5624;49.388;11.350;2023-04-06T05:33:54;5.53;;;4.03;;
11139;SDS011;5624;49.388;11.350;2023-04-06T05:36:21;7.80;;;4.90;;
11139;SDS011;5624;49.388;11.350;2023-04-06T05:38:47;7.00;;;4.60;;
11139;SDS011;5624;49.388;11.350;2023-04-06T05:41:12;6.77;;;4.80;;
11139;SDS011;5624;49.388;11.350;2023-04-06T05:43:38;6.80;;;4.80;;
11139;SDS011;5624;49.388;11.350;2023-04-06T05:46:03;5.83;;;4.27;;
11139;SDS011;5624;49.388;11.350;2023-04-06T05:48:29;7.17;;;4.70;;
11139;SDS011;5624;49.388;11.350;2023-04-06T05:50:55;7.03;;;4.53;;
11139;SDS011;5624;49.388;11.350;2023-04-06T05:53:20;7.30;;;4.27;;
11139;SDS011;5624;49.388;11.350;2023-04-06T05:55:46;8.30;;;5.70;;
11139;SDS011;5624;49.388;11.350;2023-04-06T05:58:12;7.87;;;4.87;;
11139;SDS011;5624;49.388;11.350;2023-04-06T06:00:38;6.37;;;5.20;;
11139;SDS011;5624;49.388;11.350;2023-04-06T06:03:04;6.67;;;4.83;;
11139;SDS011;5624;49.388;11.350;2023-04-06T06:05:30;6.53;;;4.27;;
11139;SDS011;5624;49.388;11.350;2023-04-06T06:07:56;6.60;;;4.03;;
11139;SDS011;5624;49.388;11.350;2023-04-06T06:10:22;6.57;;;3.97;;
11139;SDS011;5624;49.388;11.350;2023-04-06T06:12:47;7.37;;;4.13;;
11139;SDS011;5624;49.388;11.350;2023-04-06T06:15:13;7.73;;;4.23;;
11139;SDS011;5624;49.388;11.350;2023-04-06T06:17:39;9.43;;;5.00;;
11139;SDS011;5624;49.388;11.350;2023-04-06T06:20:05;8.23;;;4.03;;
11139;SDS011;5624;49.388;11.350;2023-04-06T06:22:32;6.73;;;4.40;;
11139;SDS011;5624;49.388;11.350;2023-04-06T06:24:57;8.13;;;4.27;;
11139;SDS011;5624;49.388;11.350;2023-04-06T06:27:23;9.97;;;4.60;;
11139;SDS011;5624;49.388;11.350;2023-04-06T06:29:48;6.50;;;4.27;;
11139;SDS011;5624;49.388;11.350;2023-04-06T06:32:14;5.90;;;4.03;;
11139;SDS011;5624;49.388;11.350;2023-04-06T06:34:40;7.23;;;4.90;;
11139;SDS011;5624;49.388;11.350;2023-04-06T06:37:06;6.47;;;4.43;;
11139;SDS011;5624;49.388;11.350;2023-04-06T06:39:31;5.57;;;4.00;;
11139;SDS011;5624;49.388;11.350;2023-04-06T06:41:57;6.37;;;3.83;;
11139;SDS011;5624;49.388;11.350;2023-04-06T06:44:25;8.03;;;4.47;;
11139;SDS011;5624;49.388;11.350;2023-04-06T06:46:51;7.83;;;4.70;;
11139;SDS011;5624;49.388;11.350;2023-04-06T06:49:17;6.63;;;4.50;;
11139;SDS011;5624;49.388;11.350;2023-04-06T06:51:43;5.97;;;4.70;;
11139;SDS011;5624;49.388;11.350;2023-04-06T06:54:09;6.27;;;4.80;;
11139;SDS011;5624;49.388;11.350;2023-04-06T06:56:34;9.30;;;5.00;;
11139;SDS011;5624;49.388;11.350;2023-04-06T06:59:02;5.70;;;4.17;;
11139;SDS011;5624;49.388;11.350;2023-04-06T07:01:30;7.70;;;4.67;;
11139;SDS011;5624;49.388;11.350;2023-04-06T07:03:59;5.97;;;4.53;;
11139;SDS011;5624;49.388;11.350;2023-04-06T07:06:25;8.30;;;4.70;;
11139;SDS011;5624;49.388;11.350;2023-04-06T07:08:51;8.87;;;5.30;;
11139;SDS011;5624;49.388;11.350;2023-04-06T07:11:16;7.43;;;4.80;;
11139;SDS011;5624;49.388;11.350;2023-04-06T07:13:42;7.17;;;4.67;;
11139;SDS011;5624;49.388;11.350;2023-04-06T07:16:08;9.63;;;5.00;;
11139;SDS011;5624;49.388;11.350;2023-04-06T07:18:34;7.20;;;4.97;;
11139;SDS011;5624;49.388;11.350;2023-04-06T07:20:59;9.03;;;5.10;;
11139;SDS011;5624;49.388;11.350;2023-04-06T07:23:25;8.27;;;4.77;;
11139;SDS011;5624;49.388;11.350;2023-04-06T07:25:50;11.53;;;4.80;;
11139;SDS011;5624;49.388;11.350;2023-04-06T07:28:18;8.43;;;5.00;;
11139;SDS011;5624;49.388;11.350;2023-04-06T07:30:44;6.33;;;5.20;;
11139;SDS011;5624;49.388;11.350;2023-04-06T07:33:10;8.10;;;5.40;;
11139;SDS011;5624;49.388;11.350;2023-04-06T07:35:35;11.60;;;5.77;;
11139;SDS011;5624;49.388;11.350;2023-04-06T07:38:01;26.30;;;7.70;;
11139;SDS011;5624;49.388;11.350;2023-04-06T07:40:27;8.57;;;5.70;;
11139;SDS011;5624;49.388;11.350;2023-04-06T07:42:53;9.07;;;5.47;;
11139;SDS011;5624;49.388;11.350;2023-04-06T07:45:19;9.20;;;6.00;;
11139;SDS011;5624;49.388;11.350;2023-04-06T07:47:45;8.43;;;5.77;;
11139;SDS011;5624;49.388;11.350;2023-04-06T07:50:11;9.47;;;5.53;;
11139;SDS011;5624;49.388;11.350;2023-04-06T07:52:36;8.50;;;5.43;;
11139;SDS011;5624;49.388;11.350;2023-04-06T07:55:03;7.90;;;5.93;;
11139;SDS011;5624;49.388;11.350;2023-04-06T07:57:29;7.03;;;5.30;;
11139;SDS011;5624;49.388;11.350;2023-04-06T07:59:54;7.63;;;5.80;;
11139;SDS011;5624;49.388;11.350;2023-04-06T08:02:20;9.73;;;5.40;;
11139;SDS011;5624;49.388;11.350;2023-04-06T08:04:46;7.50;;;5.47;;
11139;SDS011;5624;49.388;11.350;2023-04-06T08:07:12;9.40;;;6.47;;
11139;SDS011;5624;49.388;11.350;2023-04-06T08:09:37;10.47;;;6.63;;
11139;SDS011;5624;49.388;11.350;2023-04-06T08:12:03;10.57;;;6.43;;
11139;SDS011;5624;49.388;11.350;2023-04-06T08:14:29;7.87;;;5.40;;
11139;SDS011;5624;49.388;11.350;2023-04-06T08:16:54;9.27;;;5.77;;
11139;SDS011;5624;49.388;11.350;2023-04-06T08:19:20;9.27;;;6.30;;
11139;SDS011;5624;49.388;11.350;2023-04-06T08:21:46;8.60;;;6.03;;
11139;SDS011;5624;49.388;11.350;2023-04-06T08:24:12;6.60;;;5.47;;
11139;SDS011;5624;49.388;11.350;2023-04-06T08:26:38;7.03;;;4.85;;
11139;SDS011;5624;49.388;11.350;2023-04-06T08:29:04;7.68;;;5.65;;
11139;SDS011;5624;49.388;11.350;2023-04-06T08:31:32;8.32;;;5.60;;
11139;SDS011;5624;49.388;11.350;2023-04-06T08:33:58;8.95;;;5.90;;
11139;SDS011;5624;49.388;11.350;2023-04-06T08:36:24;9.68;;;5.57;;
11139;SDS011;5624;49.388;11.350;2023-04-06T08:38:50;8.05;;;5.40;;
11139;SDS011;5624;49.388;11.350;2023-04-06T08:41:15;7.57;;;5.72;;
11139;SDS011;5624;49.388;11.350;2023-04-06T08:43:46;9.82;;;5.57;;
11139;SDS011;5624;49.388;11.350;2023-04-06T08:46:13;10.13;;;5.35;;
11139;SDS011;5624;49.388;11.350;2023-04-06T08:48:40;7.20;;;5.25;;
11139;SDS011;5624;49.388;11.350;2023-04-06T08:51:07;6.28;;;4.72;;
11139;SDS011;5624;49.388;11.350;2023-04-06T08:53:34;5.70;;;4.28;;
11139;SDS011;5624;49.388;11.350;2023-04-06T08:55:59;8.73;;;7.00;;
11139;SDS011;5624;49.388;11.350;2023-04-06T08:58:26;8.68;;;4.88;;
11139;SDS011;5624;49.388;11.350;2023-04-06T09:00:54;8.95;;;5.60;;
11139;SDS011;5624;49.388;11.350;2023-04-06T09:03:20;9.88;;;5.32;;
11139;SDS011;5624;49.388;11.350;2023-04-06T09:05:46;13.07;;;5.63;;
11139;SDS011;5624;49.388;11.350;2023-04-06T09:08:12;8.07;;;5.32;;
11139;SDS011;5624;49.388;11.350;2023-04-06T09:10:40;6.85;;;5.10;;
11139;SDS011;5624;49.388;11.350;2023-04-06T09:13:06;6.72;;;5.07;;
11139;SDS011;5624;49.388;11.350;2023-04-06T09:15:33;6.80;;;5.22;;
11139;SDS011;5624;49.388;11.350;2023-04-06T09:17:59;7.03;;;4.88;;
11139;SDS011;5624;49.388;11.350;2023-04-06T09:20:25;7.63;;;5.72;;
11139;SDS011;5624;49.388;11.350;2023-04-06T09:22:53;7.50;;;5.28;;
11139;SDS011;5624;49.388;11.350;2023-04-06T09:25:22;7.00;;;5.18;;
11139;SDS011;5624;49.388;11.350;2023-04-06T09:27:57;10.20;;;5.68;;
11139;SDS011;5624;49.388;11.350;2023-04-06T09:30:25;7.82;;;5.88;;
11139;SDS011;5624;49.388;11.350;2023-04-06T09:32:52;9.23;;;5.60;;
11139;SDS011;5624;49.388;11.350;2023-04-06T09:35:20;6.32;;;5.05;;
11139;SDS011;5624;49.388;11.350;2023-04-06T09:37:47;8.45;;;5.88;;
11139;SDS011;5624;49.388;11.350;2023-04-06T09:40:13;7.72;;;5.22;;
11139;SDS011;5624;49.388;11.350;2023-04-06T09:42:42;8.02;;;6.00;;
11139;SDS011;5624;49.388;11.350;2023-04-06T09:45:10;13.02;;;6.20;;
11139;SDS011;5624;49.388;11.350;2023-04-06T09:47:36;7.32;;;6.20;;
11139;SDS011;5624;49.388;11.350;2023-04-06T09:50:02;7.30;;;5.30;;
11139;SDS011;5624;49.388;11.350;2023-04-06T09:52:41;10.00;;;6.32;;
11139;SDS011;5624;49.388;11.350;2023-04-06T09:55:08;9.68;;;5.90;;
11139;SDS011;5624;49.388;11.350;2023-04-06T10:00:19;7.00;;;5.80;;
11139;SDS011;5624;49.388;11.350;2023-04-06T10:05:36;8.93;;;6.07;;
11139;SDS011;5624;49.388;11.350;2023-04-06T10:08:11;6.60;;;5.13;;
11139;SDS011;5624;49.388;11.350;2023-04-06T10:10:38;7.60;;;5.38;;
11139;SDS011;5624;49.388;11.350;2023-04-06T10:13:04;8.57;;;5.85;;
11139;SDS011;5624;49.388;11.350;2023-04-06T10:15:31;9.05;;;5.70;;
11139;SDS011;5624;49.388;11.350;2023-04-06T10:17:57;7.63;;;5.40;;
11139;SDS011;5624;49.388;11.350;2023-04-06T10:20:28;7.00;;;5.70;;
11139;SDS011;5624;49.388;11.350;2023-04-06T10:23:13;7.38;;;5.45;;
11139;SDS011;5624;49.388;11.350;2023-04-06T10:26:01;6.85;;;5.68;;
11139;SDS011;5624;49.388;11.350;2023-04-06T10:28:34;9.30;;;6.43;;
11139;SDS011;5624;49.388;11.350;2023-04-06T10:31:01;12.32;;;6.20;;
11139;SDS011;5624;49.388;11.350;2023-04-06T10:33:29;9.25;;;6.35;;
11139;SDS011;5624;49.388;11.350;2023-04-06T10:35:55;8.65;;;6.28;;
11139;SDS011;5624;49.388;11.350;2023-04-06T10:38:21;8.68;;;6.63;;
11139;SDS011;5624;49.388;11.350;2023-04-06T10:41:05;7.67;;;6.30;;
11139;SDS011;5624;49.388;11.350;2023-04-06T10:43:35;8.63;;;6.53;;
11139;SDS011;5624;49.388;11.350;2023-04-06T10:46:02;7.97;;;6.20;;
11139;SDS011;5624;49.388;11.350;2023-04-06T10:48:42;8.83;;;6.87;;
11139;SDS011;5624;49.388;11.350;2023-04-06T10:51:14;7.63;;;6.53;;
11139;SDS011;5624;49.388;11.350;2023-04-06T10:53:46;7.00;;;5.40;;
11139;SDS011;5624;49.388;11.350;2023-04-06T10:56:17;9.67;;;6.30;;
11139;SDS011;5624;49.388;11.350;2023-04-06T10:58:46;9.27;;;6.00;;
11139;SDS011;5624;49.388;11.350;2023-04-06T11:01:14;8.70;;;6.77;;
11139;SDS011;5624;49.388;11.350;2023-04-06T11:03:45;9.27;;;6.17;;
11139;SDS011;5624;49.388;11.350;2023-04-06T11:06:17;7.37;;;6.13;;
11139;SDS011;5624;49.388;11.350;2023-04-06T11:08:54;8.17;;;6.10;;
11139;SDS011;5624;49.388;11.350;2023-04-06T11:11:27;6.80;;;6.03;;
11139;SDS011;5624;49.388;11.350;2023-04-06T11:13:54;6.87;;;6.13;;
11139;SDS011;5624;49.388;11.350;2023-04-06T11:16:25;9.40;;;6.67;;
11139;SDS011;5624;49.388;11.350;2023-04-06T11:19:10;8.47;;;5.87;;
11139;SDS011;5624;49.388;11.350;2023-04-06T11:21:38;8.83;;;6.00;;
11139;SDS011;5624;49.388;11.350;2023-04-06T11:26:45;8.63;;;6.10;;
11139;SDS011;5624;49.388;11.350;2023-04-06T11:29:18;8.43;;;5.93;;
11139;SDS011;5624;49.388;11.350;2023-04-06T11:31:49;21.93;;;8.37;;
11139;SDS011;5624;49.388;11.350;2023-04-06T11:34:23;8.43;;;5.80;;
11139;SDS011;5624;49.388;11.350;2023-04-06T11:36:54;7.67;;;6.03;;
11139;SDS011;5624;49.388;11.350;2023-04-06T11:39:22;7.70;;;6.73;;
11139;SDS011;5624;49.388;11.350;2023-04-06T11:41:50;10.87;;;6.00;;
11139;SDS011;5624;49.388;11.350;2023-04-06T11:47:07;7.60;;;5.90;;
11139;SDS011;5624;49.388;11.350;2023-04-06T11:49:38;7.93;;;6.00;;
11139;SDS011;5624;49.388;11.350;2023-04-06T11:52:15;7.37;;;5.50;;
11139;SDS011;5624;49.388;11.350;2023-04-06T11:54:50;8.20;;;6.00;;
11139;SDS011;5624;49.388;11.350;2023-04-06T11:57:18;7.27;;;6.50;;
11139;SDS011;5624;49.388;11.350;2023-04-06T11:59:44;7.27;;;5.67;;
11139;SDS011;5624;49.388;11.350;2023-04-06T12:02:10;7.33;;;6.07;;
11139;SDS011;5624;49.388;11.350;2023-04-06T12:04:36;6.83;;;5.67;;
11139;SDS011;5624;49.388;11.350;2023-04-06T12:07:02;11.00;;;6.57;;
11139;SDS011;5624;49.388;11.350;2023-04-06T12:09:28;8.20;;;6.23;;
11139;SDS011;5624;49.388;11.350;2023-04-06T12:11:54;8.23;;;6.13;;
11139;SDS011;5624;49.388;11.350;2023-04-06T12:14:21;6.70;;;5.80;;
11139;SDS011;5624;49.388;11.350;2023-04-06T12:16:47;7.13;;;5.80;;
11139;SDS011;5624;49.388;11.350;2023-04-06T12:19:13;8.63;;;6.17;;
11139;SDS011;5624;49.388;11.350;2023-04-06T12:21:38;9.10;;;6.47;;
11139;SDS011;5624;49.388;11.350;2023-04-06T12:24:05;9.13;;;6.20;;
11139;SDS011;5624;49.388;11.350;2023-04-06T12:26:31;7.40;;;5.77;;
11139;SDS011;5624;49.388;11.350;2023-04-06T12:28:58;8.00;;;6.67;;
11139;SDS011;5624;49.388;11.350;2023-04-06T12:31:31;7.70;;;5.87;;
11139;SDS011;5624;49.388;11.350;2023-04-06T12:33:57;7.50;;;6.23;;
11139;SDS011;5624;49.388;11.350;2023-04-06T12:36:23;7.93;;;5.40;;
11139;SDS011;5624;49.388;11.350;2023-04-06T12:38:50;9.47;;;5.93;;
11139;SDS011;5624;49.388;11.350;2023-04-06T12:41:16;6.67;;;5.33;;
11139;SDS011;5624;49.388;11.350;2023-04-06T12:43:42;6.77;;;6.07;;
11139;SDS011;5624;49.388;11.350;2023-04-06T12:46:09;7.53;;;6.23;;
11139;SDS011;5624;49.388;11.350;2023-04-06T12:48:35;10.50;;;6.03;;
11139;SDS011;5624;49.388;11.350;2023-04-06T12:51:02;7.60;;;6.17;;
11139;SDS011;5624;49.388;11.350;2023-04-06T12:53:28;6.50;;;5.70;;
11139;SDS011;5624;49.388;11.350;2023-04-06T12:55:54;7.83;;;6.20;;
11139;SDS011;5624;49.388;11.350;2023-04-06T12:58:21;9.17;;;5.80;;
11139;SDS011;5624;49.388;11.350;2023-04-06T13:00:47;7.07;;;5.93;;
11139;SDS011;5624;49.388;11.350;2023-04-06T13:03:15;8.27;;;6.30;;
11139;SDS011;5624;49.388;11.350;2023-04-06T13:05:48;7.60;;;5.90;;
11139;SDS011;5624;49.388;11.350;2023-04-06T13:08:18;8.07;;;5.47;;
11139;SDS011;5624;49.388;11.350;2023-04-06T13:10:44;9.50;;;6.80;;
11139;SDS011;5624;49.388;11.350;2023-04-06T13:13:14;6.33;;;5.50;;
11139;SDS011;5624;49.388;11.350;2023-04-06T13:15:40;7.17;;;5.83;;
11139;SDS011;5624;49.388;11.350;2023-04-06T13:18:06;6.80;;;5.17;;
11139;SDS011;5624;49.388;11.350;2023-04-06T13:20:32;8.20;;;6.10;;
11139;SDS011;5624;49.388;11.350;2023-04-06T13:22:58;8.17;;;5.60;;
11139;SDS011;5624;49.388;11.350;2023-04-06T13:25:24;6.33;;;5.13;;
11139;SDS011;5624;49.388;11.350;2023-04-06T13:27:49;7.57;;;5.50;;
11139;SDS011;5624;49.388;11.350;2023-04-06T13:30:15;8.43;;;5.67;;
11139;SDS011;5624;49.388;11.350;2023-04-06T13:32:41;7.10;;;5.97;;
11139;SDS011;5624;49.388;11.350;2023-04-06T13:35:07;6.77;;;5.37;;
11139;SDS011;5624;49.388;11.350;2023-04-06T13:37:33;7.07;;;5.63;;
11139;SDS011;5624;49.388;11.350;2023-04-06T13:40:01;8.03;;;6.13;;
11139;SDS011;5624;49.388;11.350;2023-04-06T13:42:27;7.40;;;5.90;;
11139;SDS011;5624;49.388;11.350;2023-04-06T13:44:53;7.77;;;6.07;;
11139;SDS011;5624;49.388;11.350;2023-04-06T13:47:19;6.60;;;5.73;;
11139;SDS011;5624;49.388;11.350;2023-04-06T13:49:45;7.60;;;6.03;;
11139;SDS011;5624;49.388;11.350;2023-04-06T13:52:11;8.20;;;6.40;;
11139;SDS011;5624;49.388;11.350;2023-04-06T13:54:37;6.60;;;5.37;;
11139;SDS011;5624;49.388;11.350;2023-04-06T13:57:03;7.50;;;5.83;;
11139;SDS011;5624;49.388;11.350;2023-04-06T13:59:33;9.33;;;6.40;;
11139;SDS011;5624;49.388;11.350;2023-04-06T14:01:59;8.77;;;5.50;;
11139;SDS011;5624;49.388;11.350;2023-04-06T14:04:25;7.73;;;5.80;;
11139;SDS011;5624;49.388;11.350;2023-04-06T14:06:51;7.77;;;5.63;;
11139;SDS011;5624;49.388;11.350;2023-04-06T14:09:17;8.90;;;6.10;;
11139;SDS011;5624;49.388;11.350;2023-04-06T14:11:43;6.43;;;5.23;;
11139;SDS011;5624;49.388;11.350;2023-04-06T14:14:09;8.17;;;6.23;;
11139;SDS011;5624;49.388;11.350;2023-04-06T14:16:35;6.87;;;5.80;;
11139;SDS011;5624;49.388;11.350;2023-04-06T14:19:00;7.97;;;5.60;;
11139;SDS011;5624;49.388;11.350;2023-04-06T14:21:26;7.80;;;6.17;;
11139;SDS011;5624;49.388;11.350;2023-04-06T14:23:52;6.47;;;5.30;;
11139;SDS011;5624;49.388;11.350;2023-04-06T14:26:17;7.17;;;5.23;;
11139;SDS011;5624;49.388;11.350;2023-04-06T14:28:44;8.53;;;5.90;;
11139;SDS011;5624;49.388;11.350;2023-04-06T14:31:14;10.03;;;6.20;;
11139;SDS011;5624;49.388;11.350;2023-04-06T14:33:41;5.80;;;4.70;;
11139;SDS011;5624;49.388;11.350;2023-04-06T14:36:08;8.10;;;6.27;;
11139;SDS011;5624;49.388;11.350;2023-04-06T14:38:34;8.67;;;7.17;;
11139;SDS011;5624;49.388;11.350;2023-04-06T14:41:00;7.03;;;5.33;;
11139;SDS011;5624;49.388;11.350;2023-04-06T14:43:26;9.73;;;5.67;;
11139;SDS011;5624;49.388;11.350;2023-04-06T14:45:52;7.17;;;5.93;;
11139;SDS011;5624;49.388;11.350;2023-04-06T14:48:18;7.77;;;5.90;;
11139;SDS011;5624;49.388;11.350;2023-04-06T14:50:56;8.20;;;5.60;;
11139;SDS011;5624;49.388;11.350;2023-04-06T14:53:22;8.20;;;5.47;;
11139;SDS011;5624;49.388;11.350;2023-04-06T14:55:49;6.37;;;5.20;;